sensor_id;sensor_type;location;lat;lon;timestamp;temperature;humidity
37446;DHT22;23307;51.136;14.942;2022-12-07T00:00:43;2.60;99.90
37446;DHT22;23307;51.136;14.942;2022-12-07T00:03:08;2.60;99.90
37446;DHT22;23307;51.136;14.942;2022-12-07T00:05:34;2.60;99.90
37446;DHT22;23307;51.136;14.942;2022-12-07T00:07:59;2.60;99.90
37446;DHT22;23307;51.136;14.942;2022-12-07T00:10:25;2.60;99.90
37446;DHT22;23307;51.136;14.942;2022-12-07T00:12:50;2.60;99.90
37446;DHT22;23307;51.136;14.942;2022-12-07T00:15:16;2.70;99.90
37446;DHT22;23307;51.136;14.942;2022-12-07T00:17:41;2.70;99.90
37446;DHT22;23307;51.136;14.942;2022-12-07T00:20:07;2.70;99.90
37446;DHT22;23307;51.136;14.942;2022-12-07T00:22:33;2.70;99.90
37446;DHT22;23307;51.136;14.942;2022-12-07T00:24:58;2.70;99.90
37446;DHT22;23307;51.136;14.942;2022-12-07T00:27:24;2.70;99.90
37446;DHT22;23307;51.136;14.942;2022-12-07T00:29:49;2.70;99.90
37446;DHT22;23307;51.136;14.942;2022-12-07T00:32:15;2.70;99.90
37446;DHT22;23307;51.136;14.942;2022-12-07T00:34:40;2.70;99.90
37446;DHT22;23307;51.136;14.942;2022-12-07T00:37:06;2.70;99.90
37446;DHT22;23307;51.136;14.942;2022-12-07T00:39:31;2.70;99.90
37446;DHT22;23307;51.136;14.942;2022-12-07T00:41:57;2.80;99.90
37446;DHT22;23307;51.136;14.942;2022-12-07T00:44:22;2.80;99.90
37446;DHT22;23307;51.136;14.942;2022-12-07T00:46:48;2.80;99.90
37446;DHT22;23307;51.136;14.942;2022-12-07T00:49:13;2.80;99.90
37446;DHT22;23307;51.136;14.942;2022-12-07T00:51:39;2.80;99.90
37446;DHT22;23307;51.136;14.942;2022-12-07T00:54:04;2.80;99.90
37446;DHT22;23307;51.136;14.942;2022-12-07T00:56:30;2.80;99.90
37446;DHT22;23307;51.136;14.942;2022-12-07T00:58:57;2.90;99.90
37446;DHT22;23307;51.136;14.942;2022-12-07T01:01:24;2.90;99.90
37446;DHT22;23307;51.136;14.942;2022-12-07T01:03:50;2.90;99.90
37446;DHT22;23307;51.136;14.942;2022-12-07T01:06:17;2.90;99.90
37446;DHT22;23307;51.136;14.942;2022-12-07T01:08:43;2.90;99.90
37446;DHT22;23307;51.136;14.942;2022-12-07T01:11:11;2.90;99.90
37446;DHT22;23307;51.136;14.942;2022-12-07T01:13:37;2.90;99.90
37446;DHT22;23307;51.136;14.942;2022-12-07T01:16:05;2.90;99.90
37446;DHT22;23307;51.136;14.942;2022-12-07T01:18:33;2.90;99.90
37446;DHT22;23307;51.136;14.942;2022-12-07T01:21:03;2.90;99.90
37446;DHT22;23307;51.136;14.942;2022-12-07T01:23:29;3.00;99.90
37446;DHT22;23307;51.136;14.942;2022-12-07T01:25:59;3.00;99.90
37446;DHT22;23307;51.136;14.942;2022-12-07T01:28:26;3.10;99.90
37446;DHT22;23307;51.136;14.942;2022-12-07T01:31:13;3.10;99.90
37446;DHT22;23307;51.136;14.942;2022-12-07T01:33:40;3.10;99.90
37446;DHT22;23307;51.136;14.942;2022-12-07T01:36:28;3.10;99.90
37446;DHT22;23307;51.136;14.942;2022-12-07T01:38:57;3.10;99.90
37446;DHT22;23307;51.136;14.942;2022-12-07T01:41:25;3.20;99.90
37446;DHT22;23307;51.136;14.942;2022-12-07T01:46:47;3.20;99.90
37446;DHT22;23307;51.136;14.942;2022-12-07T01:51:45;3.20;99.90
37446;DHT22;23307;51.136;14.942;2022-12-07T01:54:12;3.20;99.90
37446;DHT22;23307;51.136;14.942;2022-12-07T01:56:41;3.20;99.90
37446;DHT22;23307;51.136;14.942;2022-12-07T01:59:09;3.20;99.90
37446;DHT22;23307;51.136;14.942;2022-12-07T02:01:35;3.20;99.90
37446;DHT22;23307;51.136;14.942;2022-12-07T02:04:00;3.20;99.90
37446;DHT22;23307;51.136;14.942;2022-12-07T02:06:27;3.10;99.90
37446;DHT22;23307;51.136;14.942;2022-12-07T02:08:53;3.10;99.90
37446;DHT22;23307;51.136;14.942;2022-12-07T02:11:19;3.10;99.90
37446;DHT22;23307;51.136;14.942;2022-12-07T02:13:46;3.10;99.90
37446;DHT22;23307;51.136;14.942;2022-12-07T02:30:05;3.30;99.90
37446;DHT22;23307;51.136;14.942;2022-12-07T02:35:15;3.30;99.90
37446;DHT22;23307;51.136;14.942;2022-12-07T02:37:51;3.20;99.90
37446;DHT22;23307;51.136;14.942;2022-12-07T02:42:58;3.20;99.90
37446;DHT22;23307;51.136;14.942;2022-12-07T02:45:27;3.20;99.90
37446;DHT22;23307;51.136;14.942;2022-12-07T02:47:57;3.10;99.90
37446;DHT22;23307;51.136;14.942;2022-12-07T02:50:24;3.10;99.90
37446;DHT22;23307;51.136;14.942;2022-12-07T02:52:50;3.10;99.90
37446;DHT22;23307;51.136;14.942;2022-12-07T02:55:17;3.00;99.90
37446;DHT22;23307;51.136;14.942;2022-12-07T02:58:21;3.00;99.90
37446;DHT22;23307;51.136;14.942;2022-12-07T03:00:58;3.00;99.90
37446;DHT22;23307;51.136;14.942;2022-12-07T03:03:28;3.00;99.90
37446;DHT22;23307;51.136;14.942;2022-12-07T03:06:10;3.10;99.90
37446;DHT22;23307;51.136;14.942;2022-12-07T03:11:42;3.00;99.90
37446;DHT22;23307;51.136;14.942;2022-12-07T03:14:12;3.00;99.90
37446;DHT22;23307;51.136;14.942;2022-12-07T03:16:44;3.10;99.90
37446;DHT22;23307;51.136;14.942;2022-12-07T03:19:14;3.10;99.90
37446;DHT22;23307;51.136;14.942;2022-12-07T03:21:46;3.10;99.90
37446;DHT22;23307;51.136;14.942;2022-12-07T03:24:21;3.20;99.90
37446;DHT22;23307;51.136;14.942;2022-12-07T03:26:51;3.20;99.90
37446;DHT22;23307;51.136;14.942;2022-12-07T03:29:24;3.20;99.90
37446;DHT22;23307;51.136;14.942;2022-12-07T03:31:56;3.30;99.90
37446;DHT22;23307;51.136;14.942;2022-12-07T03:34:34;3.30;99.90
37446;DHT22;23307;51.136;14.942;2022-12-07T03:37:33;3.30;99.90
37446;DHT22;23307;51.136;14.942;2022-12-07T03:40:33;3.20;99.90
37446;DHT22;23307;51.136;14.942;2022-12-07T03:43:01;3.30;99.90
37446;DHT22;23307;51.136;14.942;2022-12-07T03:45:43;3.30;99.90
37446;DHT22;23307;51.136;14.942;2022-12-07T03:48:24;3.30;99.90
37446;DHT22;23307;51.136;14.942;2022-12-07T03:51:01;3.30;99.90
37446;DHT22;23307;51.136;14.942;2022-12-07T03:53:36;3.30;99.90
37446;DHT22;23307;51.136;14.942;2022-12-07T03:56:05;3.30;99.90
37446;DHT22;23307;51.136;14.942;2022-12-07T03:58:33;3.30;99.90
37446;DHT22;23307;51.136;14.942;2022-12-07T04:00:59;3.30;99.90
37446;DHT22;23307;51.136;14.942;2022-12-07T04:03:25;3.30;99.90
37446;DHT22;23307;51.136;14.942;2022-12-07T04:05:50;3.30;99.90
37446;DHT22;23307;51.136;14.942;2022-12-07T04:08:16;3.30;99.90
37446;DHT22;23307;51.136;14.942;2022-12-07T04:10:41;3.30;99.90
37446;DHT22;23307;51.136;14.942;2022-12-07T04:13:07;3.30;99.90
37446;DHT22;23307;51.136;14.942;2022-12-07T04:15:32;3.30;99.90
37446;DHT22;23307;51.136;14.942;2022-12-07T04:17:58;3.20;99.90
37446;DHT22;23307;51.136;14.942;2022-12-07T04:20:23;3.20;99.90
37446;DHT22;23307;51.136;14.942;2022-12-07T04:22:49;3.20;99.90
37446;DHT22;23307;51.136;14.942;2022-12-07T04:25:15;3.20;99.90
37446;DHT22;23307;51.136;14.942;2022-12-07T04:27:40;3.20;99.90
37446;DHT22;23307;51.136;14.942;2022-12-07T04:30:06;3.30;99.90
37446;DHT22;23307;51.136;14.942;2022-12-07T04:32:32;3.30;99.90
37446;DHT22;23307;51.136;14.942;2022-12-07T04:34:57;3.30;99.90
37446;DHT22;23307;51.136;14.942;2022-12-07T04:37:23;3.30;99.90
37446;DHT22;23307;51.136;14.942;2022-12-07T04:39:49;3.30;99.90
37446;DHT22;23307;51.136;14.942;2022-12-07T04:42:15;3.30;99.90
37446;DHT22;23307;51.136;14.942;2022-12-07T04:44:40;3.30;99.90
37446;DHT22;23307;51.136;14.942;2022-12-07T04:47:06;3.30;99.90
37446;DHT22;23307;51.136;14.942;2022-12-07T04:49:31;3.30;99.90
37446;DHT22;23307;51.136;14.942;2022-12-07T04:51:57;3.30;99.90
37446;DHT22;23307;51.136;14.942;2022-12-07T04:54:23;3.40;99.90
37446;DHT22;23307;51.136;14.942;2022-12-07T04:56:48;3.40;99.90
37446;DHT22;23307;51.136;14.942;2022-12-07T04:59:16;3.40;99.90
37446;DHT22;23307;51.136;14.942;2022-12-07T05:01:42;3.40;99.90
37446;DHT22;23307;51.136;14.942;2022-12-07T05:04:08;3.40;99.90
37446;DHT22;23307;51.136;14.942;2022-12-07T05:06:33;3.40;99.90
37446;DHT22;23307;51.136;14.942;2022-12-07T05:08:59;3.40;99.90
37446;DHT22;23307;51.136;14.942;2022-12-07T05:11:25;3.40;99.90
37446;DHT22;23307;51.136;14.942;2022-12-07T05:14:11;3.50;99.90
37446;DHT22;23307;51.136;14.942;2022-12-07T05:16:38;3.40;99.90
37446;DHT22;23307;51.136;14.942;2022-12-07T05:19:04;3.40;99.90
37446;DHT22;23307;51.136;14.942;2022-12-07T05:21:30;3.40;99.90
37446;DHT22;23307;51.136;14.942;2022-12-07T05:23:55;3.40;99.90
37446;DHT22;23307;51.136;14.942;2022-12-07T05:26:21;3.40;99.90
37446;DHT22;23307;51.136;14.942;2022-12-07T05:28:51;3.30;99.90
37446;DHT22;23307;51.136;14.942;2022-12-07T05:31:16;3.30;99.90
37446;DHT22;23307;51.136;14.942;2022-12-07T05:33:42;3.30;99.90
37446;DHT22;23307;51.136;14.942;2022-12-07T05:36:07;3.30;99.90
37446;DHT22;23307;51.136;14.942;2022-12-07T05:38:33;3.30;99.90
37446;DHT22;23307;51.136;14.942;2022-12-07T05:41:03;3.30;99.90
37446;DHT22;23307;51.136;14.942;2022-12-07T05:43:29;3.30;99.90
37446;DHT22;23307;51.136;14.942;2022-12-07T05:45:55;3.30;99.90
37446;DHT22;23307;51.136;14.942;2022-12-07T05:48:21;3.30;99.90
37446;DHT22;23307;51.136;14.942;2022-12-07T05:50:51;3.20;99.90
37446;DHT22;23307;51.136;14.942;2022-12-07T05:53:17;3.20;99.90
37446;DHT22;23307;51.136;14.942;2022-12-07T05:55:43;3.20;99.90
37446;DHT22;23307;51.136;14.942;2022-12-07T05:58:09;3.20;99.90
37446;DHT22;23307;51.136;14.942;2022-12-07T06:00:56;3.20;99.90
37446;DHT22;23307;51.136;14.942;2022-12-07T06:03:22;3.20;99.90
37446;DHT22;23307;51.136;14.942;2022-12-07T06:05:48;3.20;99.90
37446;DHT22;23307;51.136;14.942;2022-12-07T06:08:13;3.20;99.90
37446;DHT22;23307;51.136;14.942;2022-12-07T06:10:40;3.20;99.90
37446;DHT22;23307;51.136;14.942;2022-12-07T06:13:07;3.20;99.90
37446;DHT22;23307;51.136;14.942;2022-12-07T06:15:33;3.20;99.90
37446;DHT22;23307;51.136;14.942;2022-12-07T06:18:00;3.20;99.90
37446;DHT22;23307;51.136;14.942;2022-12-07T06:20:25;3.20;99.90
37446;DHT22;23307;51.136;14.942;2022-12-07T06:22:51;3.20;99.90
37446;DHT22;23307;51.136;14.942;2022-12-07T06:25:16;3.10;99.90
37446;DHT22;23307;51.136;14.942;2022-12-07T06:27:42;3.10;99.90
37446;DHT22;23307;51.136;14.942;2022-12-07T06:30:08;3.10;99.90
37446;DHT22;23307;51.136;14.942;2022-12-07T06:32:35;3.10;99.90
37446;DHT22;23307;51.136;14.942;2022-12-07T06:35:01;3.10;99.90
37446;DHT22;23307;51.136;14.942;2022-12-07T06:37:27;3.10;99.90
37446;DHT22;23307;51.136;14.942;2022-12-07T06:39:52;3.10;99.90
37446;DHT22;23307;51.136;14.942;2022-12-07T06:42:18;3.10;99.90
37446;DHT22;23307;51.136;14.942;2022-12-07T06:44:43;3.10;99.90
37446;DHT22;23307;51.136;14.942;2022-12-07T06:47:09;3.10;99.90
37446;DHT22;23307;51.136;14.942;2022-12-07T06:49:34;3.10;99.90
37446;DHT22;23307;51.136;14.942;2022-12-07T06:52:00;3.10;99.90
37446;DHT22;23307;51.136;14.942;2022-12-07T06:54:25;3.10;99.90
37446;DHT22;23307;51.136;14.942;2022-12-07T06:56:51;3.10;99.90
37446;DHT22;23307;51.136;14.942;2022-12-07T06:59:16;3.10;99.90
37446;DHT22;23307;51.136;14.942;2022-12-07T07:01:42;3.10;99.90
37446;DHT22;23307;51.136;14.942;2022-12-07T07:04:07;3.20;99.90
37446;DHT22;23307;51.136;14.942;2022-12-07T07:06:33;3.20;99.90
37446;DHT22;23307;51.136;14.942;2022-12-07T07:08:59;3.20;99.90
37446;DHT22;23307;51.136;14.942;2022-12-07T07:11:24;3.30;99.90
37446;DHT22;23307;51.136;14.942;2022-12-07T07:13:50;3.30;99.90
37446;DHT22;23307;51.136;14.942;2022-12-07T07:16:15;3.40;99.90
37446;DHT22;23307;51.136;14.942;2022-12-07T07:18:41;3.40;99.90
37446;DHT22;23307;51.136;14.942;2022-12-07T07:21:07;3.40;99.90
37446;DHT22;23307;51.136;14.942;2022-12-07T07:23:32;3.40;99.90
37446;DHT22;23307;51.136;14.942;2022-12-07T07:25:58;3.40;99.90
37446;DHT22;23307;51.136;14.942;2022-12-07T07:28:23;3.40;99.90
37446;DHT22;23307;51.136;14.942;2022-12-07T07:30:49;3.50;99.90
37446;DHT22;23307;51.136;14.942;2022-12-07T07:33:15;3.50;99.90
37446;DHT22;23307;51.136;14.942;2022-12-07T07:35:40;3.50;99.90
37446;DHT22;23307;51.136;14.942;2022-12-07T07:38:06;3.50;99.90
37446;DHT22;23307;51.136;14.942;2022-12-07T07:40:32;3.50;99.90
37446;DHT22;23307;51.136;14.942;2022-12-07T07:42:58;3.50;99.90
37446;DHT22;23307;51.136;14.942;2022-12-07T07:45:25;3.60;99.90
37446;DHT22;23307;51.136;14.942;2022-12-07T07:47:51;3.60;99.90
37446;DHT22;23307;51.136;14.942;2022-12-07T07:50:18;3.60;99.90
37446;DHT22;23307;51.136;14.942;2022-12-07T07:52:44;3.60;99.90
37446;DHT22;23307;51.136;14.942;2022-12-07T07:55:10;3.70;99.90
37446;DHT22;23307;51.136;14.942;2022-12-07T07:57:36;3.70;99.90
37446;DHT22;23307;51.136;14.942;2022-12-07T08:00:07;3.70;99.90
37446;DHT22;23307;51.136;14.942;2022-12-07T08:02:33;3.70;99.90
37446;DHT22;23307;51.136;14.942;2022-12-07T08:04:59;3.70;99.90
37446;DHT22;23307;51.136;14.942;2022-12-07T08:07:25;3.70;99.90
37446;DHT22;23307;51.136;14.942;2022-12-07T08:09:50;3.70;99.90
37446;DHT22;23307;51.136;14.942;2022-12-07T08:12:16;3.80;99.90
37446;DHT22;23307;51.136;14.942;2022-12-07T08:14:41;3.80;99.90
37446;DHT22;23307;51.136;14.942;2022-12-07T08:17:07;3.80;99.90
37446;DHT22;23307;51.136;14.942;2022-12-07T08:19:32;3.80;99.90
37446;DHT22;23307;51.136;14.942;2022-12-07T08:21:58;3.80;99.90
37446;DHT22;23307;51.136;14.942;2022-12-07T08:24:24;3.80;99.90
37446;DHT22;23307;51.136;14.942;2022-12-07T08:26:50;3.80;99.90
37446;DHT22;23307;51.136;14.942;2022-12-07T08:29:16;3.80;99.90
37446;DHT22;23307;51.136;14.942;2022-12-07T08:31:41;3.70;99.90
37446;DHT22;23307;51.136;14.942;2022-12-07T08:34:07;3.70;99.90
37446;DHT22;23307;51.136;14.942;2022-12-07T08:36:32;3.60;99.90
37446;DHT22;23307;51.136;14.942;2022-12-07T08:38:58;3.60;99.90
37446;DHT22;23307;51.136;14.942;2022-12-07T08:41:23;3.50;99.90
37446;DHT22;23307;51.136;14.942;2022-12-07T08:43:51;3.50;99.90
37446;DHT22;23307;51.136;14.942;2022-12-07T08:46:25;3.50;99.90
37446;DHT22;23307;51.136;14.942;2022-12-07T08:48:54;3.50;99.90
37446;DHT22;23307;51.136;14.942;2022-12-07T08:51:22;3.50;99.90
37446;DHT22;23307;51.136;14.942;2022-12-07T08:53:50;3.50;99.90
37446;DHT22;23307;51.136;14.942;2022-12-07T08:56:16;3.50;99.90
37446;DHT22;23307;51.136;14.942;2022-12-07T08:58:42;3.50;99.90
37446;DHT22;23307;51.136;14.942;2022-12-07T09:01:08;3.50;99.90
37446;DHT22;23307;51.136;14.942;2022-12-07T09:03:34;3.50;99.90
37446;DHT22;23307;51.136;14.942;2022-12-07T09:06:00;3.50;99.90
37446;DHT22;23307;51.136;14.942;2022-12-07T09:08:32;3.50;99.90
37446;DHT22;23307;51.136;14.942;2022-12-07T09:10:58;3.50;99.90
37446;DHT22;23307;51.136;14.942;2022-12-07T09:13:24;3.50;99.90
37446;DHT22;23307;51.136;14.942;2022-12-07T09:15:49;3.40;99.90
37446;DHT22;23307;51.136;14.942;2022-12-07T09:18:15;3.50;99.90
37446;DHT22;23307;51.136;14.942;2022-12-07T09:20:40;3.60;99.90
37446;DHT22;23307;51.136;14.942;2022-12-07T09:23:07;3.60;99.90
37446;DHT22;23307;51.136;14.942;2022-12-07T09:25:33;3.70;99.90
37446;DHT22;23307;51.136;14.942;2022-12-07T09:27:59;3.70;99.90
37446;DHT22;23307;51.136;14.942;2022-12-07T09:30:25;3.70;99.90
37446;DHT22;23307;51.136;14.942;2022-12-07T09:32:53;3.70;99.90
37446;DHT22;23307;51.136;14.942;2022-12-07T09:35:19;3.80;99.90
37446;DHT22;23307;51.136;14.942;2022-12-07T09:37:45;3.80;99.90
37446;DHT22;23307;51.136;14.942;2022-12-07T09:40:11;3.80;99.90
37446;DHT22;23307;51.136;14.942;2022-12-07T09:42:39;3.80;99.90
37446;DHT22;23307;51.136;14.942;2022-12-07T09:45:11;3.90;99.90
37446;DHT22;23307;51.136;14.942;2022-12-07T09:47:38;3.90;99.90
37446;DHT22;23307;51.136;14.942;2022-12-07T09:50:10;4.00;99.90
37446;DHT22;23307;51.136;14.942;2022-12-07T09:52:37;4.00;99.90
37446;DHT22;23307;51.136;14.942;2022-12-07T09:55:03;4.10;99.90
37446;DHT22;23307;51.136;14.942;2022-12-07T09:57:31;4.10;99.90
37446;DHT22;23307;51.136;14.942;2022-12-07T10:00:02;4.10;99.90
37446;DHT22;23307;51.136;14.942;2022-12-07T10:02:40;4.20;99.90
37446;DHT22;23307;51.136;14.942;2022-12-07T10:05:12;4.20;99.90
37446;DHT22;23307;51.136;14.942;2022-12-07T10:07:38;4.20;99.90
37446;DHT22;23307;51.136;14.942;2022-12-07T10:10:12;4.20;99.90
37446;DHT22;23307;51.136;14.942;2022-12-07T10:15:19;4.30;99.90
37446;DHT22;23307;51.136;14.942;2022-12-07T10:17:51;4.30;99.90
37446;DHT22;23307;51.136;14.942;2022-12-07T10:23:04;4.40;99.90
37446;DHT22;23307;51.136;14.942;2022-12-07T10:25:35;4.40;99.90
37446;DHT22;23307;51.136;14.942;2022-12-07T10:30:33;4.40;99.90
37446;DHT22;23307;51.136;14.942;2022-12-07T10:33:34;4.40;99.90
37446;DHT22;23307;51.136;14.942;2022-12-07T10:36:14;4.40;99.90
37446;DHT22;23307;51.136;14.942;2022-12-07T10:38:48;4.40;99.90
37446;DHT22;23307;51.136;14.942;2022-12-07T10:41:15;4.40;99.90
37446;DHT22;23307;51.136;14.942;2022-12-07T10:43:56;4.40;99.90
37446;DHT22;23307;51.136;14.942;2022-12-07T10:52:13;4.60;99.90
37446;DHT22;23307;51.136;14.942;2022-12-07T11:00:24;4.70;99.90
37446;DHT22;23307;51.136;14.942;2022-12-07T11:19:19;4.80;99.90
37446;DHT22;23307;51.136;14.942;2022-12-07T11:21:57;4.70;99.90
37446;DHT22;23307;51.136;14.942;2022-12-07T11:24:31;4.80;99.90
37446;DHT22;23307;51.136;14.942;2022-12-07T11:27:41;4.80;99.90
37446;DHT22;23307;51.136;14.942;2022-12-07T11:33:05;4.80;99.90
37446;DHT22;23307;51.136;14.942;2022-12-07T11:38:23;4.80;99.90
37446;DHT22;23307;51.136;14.942;2022-12-07T11:40:53;4.90;99.90
37446;DHT22;23307;51.136;14.942;2022-12-07T11:43:34;4.90;99.90
37446;DHT22;23307;51.136;14.942;2022-12-07T11:46:08;4.90;99.90
37446;DHT22;23307;51.136;14.942;2022-12-07T11:49:25;5.00;99.90
37446;DHT22;23307;51.136;14.942;2022-12-07T11:51:52;5.00;99.90
37446;DHT22;23307;51.136;14.942;2022-12-07T11:54:27;5.10;99.90
37446;DHT22;23307;51.136;14.942;2022-12-07T11:56:56;5.10;99.90
37446;DHT22;23307;51.136;14.942;2022-12-07T11:59:32;5.10;99.90
37446;DHT22;23307;51.136;14.942;2022-12-07T12:02:22;5.20;99.90
37446;DHT22;23307;51.136;14.942;2022-12-07T12:07:26;5.20;99.90
37446;DHT22;23307;51.136;14.942;2022-12-07T12:09:59;5.20;99.90
37446;DHT22;23307;51.136;14.942;2022-12-07T12:13:00;5.20;99.90
37446;DHT22;23307;51.136;14.942;2022-12-07T12:15:55;5.20;99.90
37446;DHT22;23307;51.136;14.942;2022-12-07T12:18:44;5.10;99.90
37446;DHT22;23307;51.136;14.942;2022-12-07T12:21:16;5.10;99.90
37446;DHT22;23307;51.136;14.942;2022-12-07T12:23:49;5.00;99.90
37446;DHT22;23307;51.136;14.942;2022-12-07T12:26:24;4.90;99.90
37446;DHT22;23307;51.136;14.942;2022-12-07T12:28:58;4.90;99.90
37446;DHT22;23307;51.136;14.942;2022-12-07T12:34:02;4.90;99.90
37446;DHT22;23307;51.136;14.942;2022-12-07T12:44:02;4.70;99.90
37446;DHT22;23307;51.136;14.942;2022-12-07T12:46:36;4.70;99.90
37446;DHT22;23307;51.136;14.942;2022-12-07T12:51:50;4.50;99.90
37446;DHT22;23307;51.136;14.942;2022-12-07T12:54:19;4.30;99.90
37446;DHT22;23307;51.136;14.942;2022-12-07T12:59:28;4.10;99.90
37446;DHT22;23307;51.136;14.942;2022-12-07T13:12:55;3.80;99.90
37446;DHT22;23307;51.136;14.942;2022-12-07T13:18:00;3.90;99.90
37446;DHT22;23307;51.136;14.942;2022-12-07T13:23:10;3.90;99.90
37446;DHT22;23307;51.136;14.942;2022-12-07T13:25:51;3.90;99.90
37446;DHT22;23307;51.136;14.942;2022-12-07T13:28:18;3.90;99.90
37446;DHT22;23307;51.136;14.942;2022-12-07T13:33:22;3.90;99.90
37446;DHT22;23307;51.136;14.942;2022-12-07T13:35:48;3.80;99.90
37446;DHT22;23307;51.136;14.942;2022-12-07T13:44:07;3.40;99.90
37446;DHT22;23307;51.136;14.942;2022-12-07T13:49:29;3.20;99.90
37446;DHT22;23307;51.136;14.942;2022-12-07T13:54:45;3.20;99.90
37446;DHT22;23307;51.136;14.942;2022-12-07T13:57:11;3.10;99.90
37446;DHT22;23307;51.136;14.942;2022-12-07T13:59:37;3.10;99.90
37446;DHT22;23307;51.136;14.942;2022-12-07T14:02:21;3.00;99.90
37446;DHT22;23307;51.136;14.942;2022-12-07T14:04:50;3.10;99.90
37446;DHT22;23307;51.136;14.942;2022-12-07T14:09:58;3.20;99.90
37446;DHT22;23307;51.136;14.942;2022-12-07T14:12:25;3.20;99.90
37446;DHT22;23307;51.136;14.942;2022-12-07T14:14:52;3.30;99.90
37446;DHT22;23307;51.136;14.942;2022-12-07T14:17:19;3.30;99.90
37446;DHT22;23307;51.136;14.942;2022-12-07T14:19:48;3.40;99.90
37446;DHT22;23307;51.136;14.942;2022-12-07T14:22:36;3.40;99.90
37446;DHT22;23307;51.136;14.942;2022-12-07T14:27:47;3.40;99.90
37446;DHT22;23307;51.136;14.942;2022-12-07T14:30:17;3.40;99.90
37446;DHT22;23307;51.136;14.942;2022-12-07T14:32:44;3.40;99.90
37446;DHT22;23307;51.136;14.942;2022-12-07T14:35:16;3.40;99.90
37446;DHT22;23307;51.136;14.942;2022-12-07T14:37:44;3.40;99.90
37446;DHT22;23307;51.136;14.942;2022-12-07T14:40:20;3.40;99.90
37446;DHT22;23307;51.136;14.942;2022-12-07T14:42:48;3.40;99.90
37446;DHT22;23307;51.136;14.942;2022-12-07T14:45:18;3.40;99.90
37446;DHT22;23307;51.136;14.942;2022-12-07T14:47:45;3.40;99.90
37446;DHT22;23307;51.136;14.942;2022-12-07T14:50:16;3.40;99.90
37446;DHT22;23307;51.136;14.942;2022-12-07T14:52:44;3.50;99.90
37446;DHT22;23307;51.136;14.942;2022-12-07T14:55:28;3.50;99.90
37446;DHT22;23307;51.136;14.942;2022-12-07T14:57:55;3.50;99.90
37446;DHT22;23307;51.136;14.942;2022-12-07T15:00:22;3.50;99.90
37446;DHT22;23307;51.136;14.942;2022-12-07T15:02:49;3.50;99.90
37446;DHT22;23307;51.136;14.942;2022-12-07T15:05:15;3.50;99.90
37446;DHT22;23307;51.136;14.942;2022-12-07T15:07:42;3.50;99.90
37446;DHT22;23307;51.136;14.942;2022-12-07T15:10:20;3.50;99.90
37446;DHT22;23307;51.136;14.942;2022-12-07T15:12:46;3.50;99.90
37446;DHT22;23307;51.136;14.942;2022-12-07T15:15:13;3.50;99.90
37446;DHT22;23307;51.136;14.942;2022-12-07T15:17:38;3.50;99.90
37446;DHT22;23307;51.136;14.942;2022-12-07T15:20:04;3.60;99.90
37446;DHT22;23307;51.136;14.942;2022-12-07T15:22:30;3.50;99.90
37446;DHT22;23307;51.136;14.942;2022-12-07T15:24:57;3.50;99.90
37446;DHT22;23307;51.136;14.942;2022-12-07T15:27:22;3.50;99.90
37446;DHT22;23307;51.136;14.942;2022-12-07T15:29:48;3.60;99.90
37446;DHT22;23307;51.136;14.942;2022-12-07T15:32:13;3.60;99.90
37446;DHT22;23307;51.136;14.942;2022-12-07T15:34:39;3.60;99.90
37446;DHT22;23307;51.136;14.942;2022-12-07T15:37:04;3.60;99.90
37446;DHT22;23307;51.136;14.942;2022-12-07T15:39:30;3.60;99.90
37446;DHT22;23307;51.136;14.942;2022-12-07T15:41:56;3.60;99.90
37446;DHT22;23307;51.136;14.942;2022-12-07T15:44:21;3.60;99.90
37446;DHT22;23307;51.136;14.942;2022-12-07T15:47:06;3.70;99.90
37446;DHT22;23307;51.136;14.942;2022-12-07T15:49:31;3.70;99.90
37446;DHT22;23307;51.136;14.942;2022-12-07T15:51:57;3.70;99.90
37446;DHT22;23307;51.136;14.942;2022-12-07T15:54:27;3.70;99.90
37446;DHT22;23307;51.136;14.942;2022-12-07T15:56:53;3.70;99.90
37446;DHT22;23307;51.136;14.942;2022-12-07T15:59:19;3.70;99.90
37446;DHT22;23307;51.136;14.942;2022-12-07T16:01:45;3.80;99.90
37446;DHT22;23307;51.136;14.942;2022-12-07T16:04:11;3.80;99.90
37446;DHT22;23307;51.136;14.942;2022-12-07T16:06:36;3.80;99.90
37446;DHT22;23307;51.136;14.942;2022-12-07T16:09:03;3.80;99.90
37446;DHT22;23307;51.136;14.942;2022-12-07T16:11:29;3.80;99.90
37446;DHT22;23307;51.136;14.942;2022-12-07T16:13:55;3.80;99.90
37446;DHT22;23307;51.136;14.942;2022-12-07T16:16:21;3.80;99.90
37446;DHT22;23307;51.136;14.942;2022-12-07T16:18:50;3.70;99.90
37446;DHT22;23307;51.136;14.942;2022-12-07T16:21:16;3.80;99.90
37446;DHT22;23307;51.136;14.942;2022-12-07T16:23:42;3.70;99.90
37446;DHT22;23307;51.136;14.942;2022-12-07T16:26:15;3.70;99.90
37446;DHT22;23307;51.136;14.942;2022-12-07T16:28:41;3.70;99.90
37446;DHT22;23307;51.136;14.942;2022-12-07T16:31:09;3.70;99.90
37446;DHT22;23307;51.136;14.942;2022-12-07T16:33:37;3.60;99.90
37446;DHT22;23307;51.136;14.942;2022-12-07T16:36:05;3.60;99.90
37446;DHT22;23307;51.136;14.942;2022-12-07T16:38:31;3.50;99.90
37446;DHT22;23307;51.136;14.942;2022-12-07T16:40:58;3.40;99.90
37446;DHT22;23307;51.136;14.942;2022-12-07T16:43:23;3.40;99.90
37446;DHT22;23307;51.136;14.942;2022-12-07T16:45:49;3.40;99.90
37446;DHT22;23307;51.136;14.942;2022-12-07T16:48:15;3.30;99.90
37446;DHT22;23307;51.136;14.942;2022-12-07T16:50:42;3.30;99.90
37446;DHT22;23307;51.136;14.942;2022-12-07T16:53:09;3.30;99.90
37446;DHT22;23307;51.136;14.942;2022-12-07T16:55:42;3.30;99.90
37446;DHT22;23307;51.136;14.942;2022-12-07T16:58:09;3.30;99.90
37446;DHT22;23307;51.136;14.942;2022-12-07T17:00:36;3.30;99.90
37446;DHT22;23307;51.136;14.942;2022-12-07T17:03:02;3.30;99.90
37446;DHT22;23307;51.136;14.942;2022-12-07T17:05:28;3.30;99.90
37446;DHT22;23307;51.136;14.942;2022-12-07T17:07:55;3.30;99.90
37446;DHT22;23307;51.136;14.942;2022-12-07T17:10:21;3.40;99.90
37446;DHT22;23307;51.136;14.942;2022-12-07T17:12:47;3.40;99.90
37446;DHT22;23307;51.136;14.942;2022-12-07T17:15:12;3.40;99.90
37446;DHT22;23307;51.136;14.942;2022-12-07T17:17:58;3.40;99.90
37446;DHT22;23307;51.136;14.942;2022-12-07T17:20:26;3.50;99.90
37446;DHT22;23307;51.136;14.942;2022-12-07T17:22:52;3.50;99.90
37446;DHT22;23307;51.136;14.942;2022-12-07T17:25:19;3.50;99.90
37446;DHT22;23307;51.136;14.942;2022-12-07T17:27:45;3.50;99.90
37446;DHT22;23307;51.136;14.942;2022-12-07T17:30:12;3.50;99.90
37446;DHT22;23307;51.136;14.942;2022-12-07T17:32:38;3.50;99.90
37446;DHT22;23307;51.136;14.942;2022-12-07T17:35:06;3.40;99.90
37446;DHT22;23307;51.136;14.942;2022-12-07T17:37:32;3.50;99.90
37446;DHT22;23307;51.136;14.942;2022-12-07T17:39:57;3.50;99.90
37446;DHT22;23307;51.136;14.942;2022-12-07T17:42:24;3.50;99.90